Pioneer Knutsen — LMIK — position and weather

sailwx.info

Track history (hours):
 
Tides and Currents Weather Stations Pressure Air Temp Water Temp Dewpoint Dewpoint Depression Visibility Wind Speed Wind Dir Waves Ship Positions

Pioneer Knutsen

Last reported at 2017-Oct-20 14:00 UTC. Time now 2017-Oct-20 14:42 UTC.
Position N 63°49' E 009°38'.

Length 70 m; draft 3.6 m.

Type: Ship. MMSI: 259393000.

Date/timePositionNaut miles runAvg speedWind from/ knotsBaromVisibWave heightAir tempDewpointWater temp
2017-Oct-20 14:00N 63°49' E 009°38'1 2.6
2017-Oct-20 13:30N 63°48' E 009°36'511.2
2017-Oct-20 13:00N 63°43' E 009°32'612.2
2017-Oct-20 12:30N 63°37' E 009°28'510.8
2017-Oct-20 12:00N 63°33' E 009°19'612.0
2017-Oct-20 11:30N 63°30' E 009°08'611.5
2017-Oct-20 11:00N 63°28' E 008°56'611.9
2017-Oct-20 10:30N 63°26' E 008°43'611.5
2017-Oct-20 10:00N 63°24' E 008°32'612.1
2017-Oct-20 09:30N 63°20' E 008°20'612.3
2017-Oct-20 09:00N 63°17' E 008°10'612.1
2017-Oct-20 08:30N 63°14' E 007°58'612.2
2017-Oct-20 08:00N 63°11' E 007°46'611.4
2017-Oct-20 07:30N 63°07' E 007°36'611.5
2017-Oct-20 07:00N 63°04' E 007°25'611.5
2017-Oct-20 06:31N 63°02' E 007°13'611.7
2017-Oct-20 06:00N 63°00' E 007°01'511.0
2017-Oct-20 05:30N 62°57' E 006°50'611.2
2017-Oct-20 05:00N 62°53' E 006°44'611.7
2017-Oct-20 04:30N 62°48' E 006°37'612.1
2017-Oct-20 04:00N 62°43' E 006°30'612.0
2017-Oct-20 03:30N 62°38' E 006°22'611.7
2017-Oct-20 03:00N 62°34' E 006°12'611.7
2017-Oct-20 02:29N 62°29' E 006°06'510.7
2017-Oct-20 02:01N 62°24' E 006°05'5 9.6
2017-Oct-20 01:30N 62°19' E 006°04'611.6
2017-Oct-20 01:00N 62°14' E 005°56'510.5
2017-Oct-20 00:30N 62°12' E 005°46'510.4
2017-Oct-20 00:00N 62°11' E 005°35'5 9.7
2017-Oct-19 23:30N 62°11' E 005°25'5 9.5
2017-Oct-19 23:00N 62°13' E 005°15'510.0
2017-Oct-19 22:30N 62°12' E 005°05'611.6
2017-Oct-19 22:00N 62°06' E 005°06'612.0
2017-Oct-19 21:30N 61°60' E 005°10'611.4
2017-Oct-19 21:00N 61°54' E 005°08'510.2
2017-Oct-19 20:30N 61°50' E 005°16'611.7
2017-Oct-19 20:01N 61°47' E 005°06'611.5
2017-Oct-19 19:30N 61°43' E 004°58'612.0
2017-Oct-19 19:00N 61°37' E 004°59'510.8
2017-Oct-19 18:30N 61°32' E 005°00'611.9
2017-Oct-19 18:00N 61°26' E 004°58'612.1
2017-Oct-19 17:29N 61°20' E 005°03'4 9.2
2017-Oct-19 17:00N 61°17' E 004°56'510.6
2017-Oct-19 16:30N 61°12' E 005°00'612.2
2017-Oct-19 15:59N 61°06' E 005°02'510.4
2017-Oct-19 15:30N 61°02' E 004°55'510.4
2017-Oct-19 15:00N 60°59' E 004°46'611.7
2017-Oct-19 14:30N 60°53' E 004°46'611.5
2017-Oct-19 14:00N 60°47' E 004°46'612.6
2017-Oct-19 13:30N 60°41' E 004°51'612.7
2017-Oct-19 13:01N 60°35' E 004°54'2 4.7
2017-Oct-19 12:30N 60°33' E 004°53'0 0.0
2017-Oct-19 11:59N 60°33' E 004°53'0 0.0
2017-Oct-19 11:29N 60°33' E 004°53'0 0.0
2017-Oct-19 10:59N 60°33' E 004°53'0 0.0
2017-Oct-19 10:29N 60°33' E 004°53'0 0.0
2017-Oct-19 09:58N 60°33' E 004°53'0 0.0
2017-Oct-19 09:28N 60°33' E 004°53'0 0.0
2017-Oct-19 08:58N 60°33' E 004°53'0 0.0
2017-Oct-19 08:28N 60°33' E 004°53'0 0.0
2017-Oct-19 07:58N 60°33' E 004°53'0 0.0
2017-Oct-19 07:30N 60°33' E 004°53'0 0.0
2017-Oct-19 07:00N 60°33' E 004°53'0 0.0
2017-Oct-19 06:30N 60°33' E 004°53'0 0.0
2017-Oct-19 06:00N 60°33' E 004°53'4 8.4
2017-Oct-19 05:30N 60°37' E 004°52'611.3
2017-Oct-19 05:00N 60°42' E 004°48'611.1
2017-Oct-19 04:30N 60°48' E 004°44'611.0
2017-Oct-19 04:00N 60°53' E 004°46'611.9
2017-Oct-19 03:31N 60°59' E 004°46'712.9
2017-Oct-19 02:59N 61°03' E 004°57'611.6
2017-Oct-19 02:30N 61°08' E 005°01'510.1
2017-Oct-19 02:00N 61°13' E 004°57'4 8.9
2017-Oct-19 01:30N 61°18' E 004°57'5 9.0
2017-Oct-19 00:59N 61°22' E 005°02'510.6
2017-Oct-19 00:30N 61°27' E 004°58'611.5
2017-Oct-19 00:00N 61°32' E 005°00'510.2
2017-Oct-18 23:30N 61°37' E 004°59'611.3
2017-Oct-18 23:00N 61°43' E 004°57'611.7
2017-Oct-18 22:30N 61°47' E 005°05'611.9
2017-Oct-18 22:00N 61°50' E 005°16'510.3
2017-Oct-18 21:30N 61°54' E 005°08'510.5
2017-Oct-18 21:00N 61°59' E 005°10'611.8
2017-Oct-18 20:30N 62°05' E 005°06'611.5
2017-Oct-18 20:00N 62°11' E 005°05'5 9.9
2017-Oct-18 19:30N 62°13' E 005°14'510.8
2017-Oct-18 19:00N 62°11' E 005°23'610.8
2017-Oct-18 18:29N 62°11' E 005°35'612.6
2017-Oct-18 17:59N 62°12' E 005°48'611.9
2017-Oct-18 17:30N 62°16' E 005°58'612.2
2017-Oct-18 17:00N 62°21' E 006°07'611.2
2017-Oct-18 16:29N 62°26' E 006°02'510.7
2017-Oct-18 16:00N 62°30' E 006°09'611.2
2017-Oct-18 15:30N 62°35' E 006°14'611.6
2017-Oct-18 15:00N 62°39' E 006°24'1211.7
2017-Oct-18 14:00N 62°49' E 006°37'611.5
2017-Oct-18 13:30N 62°54' E 006°44'611.3
2017-Oct-18 13:00N 62°58' E 006°51'610.9
2017-Oct-18 12:30N 63°01' E 007°02'611.5
2017-Oct-18 12:00N 63°02' E 007°14'611.7
2017-Oct-18 11:30N 63°05' E 007°26'612.3
2017-Oct-18 11:00N 63°08' E 007°37'612.1
2017-Oct-18 10:30N 63°11' E 007°48'612.0
2017-Oct-18 10:00N 63°15' E 007°60'612.0
2017-Oct-18 09:30N 63°17' E 008°11'612.1
2017-Oct-18 09:00N 63°21' E 008°22'612.0
2017-Oct-18 08:30N 63°24' E 008°33'612.0
2017-Oct-18 08:00N 63°27' E 008°45'611.5
2017-Oct-18 07:30N 63°29' E 008°58'611.3
2017-Oct-18 07:00N 63°31' E 009°09'611.6
2017-Oct-18 06:30N 63°34' E 009°20'510.7
2017-Oct-18 06:01N 63°38' E 009°28'611.8
2017-Oct-18 05:30N 63°43' E 009°32'611.7
2017-Oct-18 05:00N 63°49' E 009°35'611.5
2017-Oct-18 04:30N 63°53' E 009°45'611.6
2017-Oct-18 04:00N 63°59' E 009°47'510.3
2017-Oct-18 03:30N 64°04' E 009°51'611.4
2017-Oct-18 03:00N 64°07' E 010°02'611.7
2017-Oct-18 02:30N 64°12' E 010°10'610.9
2017-Oct-18 01:58N 64°16' E 010°19'510.9
2017-Oct-18 01:30N 64°20' E 010°27'511.1
2017-Oct-18 01:00N 64°25' E 010°27'611.5
2017-Oct-18 00:30N 64°31' E 010°30'510.8
2017-Oct-18 00:00N 64°35' E 010°38'510.6
2017-Oct-17 23:30N 64°39' E 010°45'611.2
2017-Oct-17 23:00N 64°43' E 010°54'611.2
2017-Oct-17 22:30N 64°47' E 011°04'611.4
2017-Oct-17 22:00N 64°51' E 011°13'510.8
2017-Oct-17 21:30N 64°55' E 011°22'611.2
2017-Oct-17 21:00N 64°58' E 011°33'610.8
2017-Oct-17 20:30N 65°02' E 011°42'5 9.5
2017-Oct-17 20:00N 65°06' E 011°48'611.7
2017-Oct-17 19:29N 65°12' E 011°52'611.7
2017-Oct-17 19:00N 65°17' E 011°58'510.8
2017-Oct-17 18:30N 65°22' E 012°02'510.4
2017-Oct-17 17:59N 65°27' E 011°56'611.6
2017-Oct-17 17:30N 65°32' E 012°03'611.9
2017-Oct-17 17:00N 65°37' E 012°11'612.0
2017-Oct-17 16:30N 65°42' E 012°16'611.7
2017-Oct-17 16:00N 65°47' E 012°24'611.7
2017-Oct-17 15:30N 65°52' E 012°33'611.4
2017-Oct-17 15:00N 65°56' E 012°41'510.9
2017-Oct-17 14:30N 65°58' E 012°54'612.4
2017-Oct-17 13:59N 65°54' E 013°07'4 7.1
2017-Oct-17 13:28N 65°51' E 013°11'0 0.0
2017-Oct-17 12:56N 65°51' E 013°11'0 0.0
2017-Oct-17 12:29N 65°51' E 013°11'0 0.0
2017-Oct-17 11:58N 65°51' E 013°11'0 0.0
2017-Oct-17 11:28N 65°51' E 013°11'0 0.0
2017-Oct-17 10:58N 65°51' E 013°11'0 0.0
2017-Oct-17 09:19N 65°51' E 013°11'0 0.0
2017-Oct-17 08:28N 65°51' E 013°11'2 3.7
2017-Oct-17 08:00N 65°53' E 013°09'510.8
2017-Oct-17 07:30N 65°56' E 012°60'510.2
2017-Oct-17 07:00N 65°58' E 012°48'612.3
2017-Oct-17 06:30N 65°54' E 012°37'612.0
2017-Oct-17 06:00N 65°49' E 012°29'612.0
2017-Oct-17 05:30N 65°45' E 012°19'612.1
2017-Oct-17 05:00N 65°39' E 012°14'611.7
2017-Oct-17 04:30N 65°34' E 012°06'611.7
2017-Oct-17 04:00N 65°29' E 011°59'510.3
2017-Oct-17 03:30N 65°24' E 011°59'4 8.6
2017-Oct-17 03:00N 65°20' E 012°01'611.6
2017-Oct-17 02:30N 65°14' E 011°55'611.7
2017-Oct-17 02:00N 65°09' E 011°50'611.7
2017-Oct-17 01:30N 65°04' E 011°45'611.5
2017-Oct-17 01:00N 64°59' E 011°36'611.9
2017-Oct-17 00:30N 64°56' E 011°24'611.5
2017-Oct-17 00:00N 64°52' E 011°15'611.4
2017-Oct-16 23:30N 64°47' E 011°05'611.6
2017-Oct-16 23:00N 64°44' E 010°55'611.2
2017-Oct-16 22:30N 64°40' E 010°46'611.4
2017-Oct-16 22:00N 64°35' E 010°38'510.6
2017-Oct-16 21:30N 64°31' E 010°30'5 8.7
2017-Oct-16 20:59N 64°27' E 010°27'5 9.4
2017-Oct-16 20:30N 64°22' E 010°28'611.1
2017-Oct-16 20:00N 64°18' E 010°21'510.9
2017-Oct-16 19:30N 64°13' E 010°13'611.5
2017-Oct-16 19:00N 64°08' E 010°06'611.6
2017-Oct-16 18:30N 64°05' E 009°56'510.6
2017-Oct-16 17:59N 64°01' E 009°47'510.7
2017-Oct-16 17:30N 63°56' E 009°48'611.5
2017-Oct-16 17:00N 63°51' E 009°40'611.8
2017-Oct-16 16:30N 63°46' E 009°33'511.2
2017-Oct-16 16:00N 63°41' E 009°30'611.2
2017-Oct-16 15:30N 63°35' E 009°26'612.8
2017-Oct-16 15:00N 63°32' E 009°14'612.7
2017-Oct-16 14:30N 63°29' E 009°02'1212.1
2017-Oct-16 13:30N 63°25' E 008°36'612.2
2017-Oct-16 13:00N 63°22' E 008°24'612.2
2017-Oct-16 12:30N 63°18' E 008°14'612.2
2017-Oct-16 12:00N 63°15' E 008°02'612.0
2017-Oct-16 11:30N 63°12' E 007°51'611.9
2017-Oct-16 11:00N 63°09' E 007°40'611.6
2017-Oct-16 10:31N 63°05' E 007°29'611.5
2017-Oct-16 10:00N 63°03' E 007°17'611.7
2017-Oct-16 09:30N 63°01' E 007°05'611.2
2017-Oct-16 08:59N 62°59' E 006°54'510.0
2017-Oct-16 08:30N 62°55' E 006°47'510.9
2017-Oct-16 08:00N 62°50' E 006°40'611.7
2017-Oct-16 07:30N 62°45' E 006°33'611.8
2017-Oct-16 07:00N 62°41' E 006°26'611.5
2017-Oct-16 06:30N 62°36' E 006°18'611.2
2017-Oct-16 06:00N 62°32' E 006°10'611.0
2017-Oct-16 05:30N 62°27' E 006°04'510.4
2017-Oct-16 05:00N 62°22' E 006°07'510.3
2017-Oct-16 04:30N 62°18' E 006°02'612.3
2017-Oct-16 03:59N 62°13' E 005°53'612.3
2017-Oct-16 03:30N 62°11' E 005°41'611.5
2017-Oct-16 03:00N 62°12' E 005°29'5 9.7
2017-Oct-16 02:30N 62°11' E 005°19'510.1
2017-Oct-16 02:00N 62°14' E 005°09'5 9.8
2017-Oct-16 01:30N 62°10' E 005°02'4 8.1
2017-Oct-16 01:00N 62°06' E 005°05'4 8.8
2017-Oct-16 00:30N 62°03' E 005°09'610.9
2017-Oct-16 00:00N 61°57' E 005°09'5 9.3
2017-Oct-15 23:30N 61°53' E 005°11'3 6.4
2017-Oct-15 23:00N 61°49' E 005°12'612.5
2017-Oct-15 22:30N 61°46' E 005°01'611.7
2017-Oct-15 22:00N 61°40' E 004°58'611.6
2017-Oct-15 21:30N 61°34' E 004°58'611.4
2017-Oct-15 21:00N 61°29' E 004°59'611.8
2017-Oct-15 20:30N 61°23' E 005°01'5 9.7
2017-Oct-15 20:00N 61°18' E 005°00'5 9.7
2017-Oct-15 19:30N 61°13' E 004°57'611.9
2017-Oct-15 19:00N 61°08' E 005°02'612.1
2017-Oct-15 18:30N 61°02' E 004°56'612.8
2017-Oct-15 18:00N 60°58' E 004°46'612.3
2017-Oct-15 17:30N 60°52' E 004°47'612.0
2017-Oct-15 16:59N 60°46' E 004°47'713.4
2017-Oct-15 16:30N 60°40' E 004°52'613.0
2017-Oct-15 16:00N 60°34' E 004°54'1 1.8
2017-Oct-15 15:30N 60°33' E 004°53'0 0.0
2017-Oct-15 14:58N 60°33' E 004°53'0 0.0
2017-Oct-15 13:58N 60°33' E 004°53'0 0.0
2017-Oct-15 13:28N 60°33' E 004°53'0 0.0
2017-Oct-15 13:00N 60°33' E 004°53'0 0.0
2017-Oct-15 12:30N 60°33' E 004°53'0 0.0
2017-Oct-15 12:00N 60°33' E 004°53'0 0.0
2017-Oct-15 11:30N 60°33' E 004°53'0 0.0
2017-Oct-15 11:00N 60°33' E 004°53'0 0.0
2017-Oct-15 10:29N 60°33' E 004°53'0 0.0
2017-Oct-15 09:59N 60°33' E 004°53'0 0.0
2017-Oct-15 09:30N 60°33' E 004°53'4 8.3
2017-Oct-15 09:00N 60°37' E 004°53'510.1
2017-Oct-15 08:29N 60°42' E 004°49'510.1
2017-Oct-15 07:59N 60°47' E 004°45'5 9.7
2017-Oct-15 07:30N 60°51' E 004°45'510.3
2017-Oct-15 07:00N 60°57' E 004°46'5 9.6
2017-Oct-15 06:30N 61°01' E 004°50'611.2
2017-Oct-15 05:59N 61°05' E 004°59'510.9
2017-Oct-15 05:30N 61°10' E 005°01'510.2
2017-Oct-15 05:00N 61°14' E 004°55'4 8.7
2017-Oct-15 04:30N 61°18' E 004°59'4 8.5
2017-Oct-15 04:00N 61°22' E 005°01'510.3
2017-Oct-15 03:30N 61°27' E 004°58'510.6
2017-Oct-15 03:00N 61°32' E 005°00'5 9.4
2017-Oct-15 02:30N 61°37' E 004°59'510.7
2017-Oct-15 02:00N 61°42' E 004°57'5 9.6
2017-Oct-15 01:30N 61°46' E 005°02'510.0
2017-Oct-15 01:00N 61°49' E 005°11'3 6.5
2017-Oct-15 00:30N 61°52' E 005°13'5 9.3
2017-Oct-15 00:00N 61°56' E 005°08'510.5
2017-Oct-14 23:30N 62°01' E 005°09'510.4
2017-Oct-14 23:00N 62°06' E 005°05'4 8.8
2017-Oct-14 22:30N 62°10' E 005°02'3 5.0
2017-Oct-14 22:00N 62°13' E 005°04'3 5.8
2017-Oct-14 21:30N 62°14' E 005°10'4 8.4
2017-Oct-14 21:00N 62°12' E 005°18'4 8.4
2017-Oct-14 20:30N 62°12' E 005°27'510.1
2017-Oct-14 20:00N 62°11' E 005°38'510.4
2017-Oct-14 19:30N 62°12' E 005°48'510.5
2017-Oct-14 19:00N 62°16' E 005°57'611.0
2017-Oct-14 18:29N 62°20' E 006°05'510.0
2017-Oct-14 18:00N 62°25' E 006°03'4 8.7
2017-Oct-14 17:30N 62°29' E 006°06'5 9.3
2017-Oct-14 17:00N 62°33' E 006°10'5 9.6
2017-Oct-14 16:30N 62°37' E 006°17'5 9.2
2017-Oct-14 16:00N 62°40' E 006°25'5 9.8
2017-Oct-14 15:30N 62°44' E 006°30'5 9.6
2017-Oct-14 15:00N 62°48' E 006°36'5 9.2
2017-Oct-14 14:30N 62°52' E 006°41'4 8.6
2017-Oct-14 14:00N 62°55' E 006°47'4 7.1
2017-Oct-14 13:30N 62°58' E 006°51'3 6.2
2017-Oct-14 13:00N 62°60' E 006°57'4 7.3
2017-Oct-14 12:30N 63°01' E 007°04'4 7.6
2017-Oct-14 12:01N 63°02' E 007°12'4 7.8
2017-Oct-14 11:30N 63°03' E 007°20'4 8.4
2017-Oct-14 11:00N 63°05' E 007°29'5 9.7
2017-Oct-14 10:30N 63°08' E 007°38'611.1
2017-Oct-14 10:00N 63°02' E 007°41'611.7
2017-Oct-14 09:30N 62°58' E 007°49'510.8
2017-Oct-14 09:00N 62°59' E 008°00'611.5
2017-Oct-14 08:30N 62°54' E 008°08'611.6
2017-Oct-14 08:00N 62°49' E 008°13'612.0
2017-Oct-14 07:30N 62°46' E 008°24'511.0
2017-Oct-14 07:00N 62°42' E 008°32'1 1.7
2017-Oct-14 06:30N 62°41' E 008°33'0 0.0
2017-Oct-14 05:58N 62°41' E 008°33'0 0.0
2017-Oct-14 05:28N 62°41' E 008°33'0 0.0
2017-Oct-14 04:58N 62°41' E 008°33'0 0.0
2017-Oct-14 04:28N 62°41' E 008°33'0 0.0
2017-Oct-14 04:00N 62°41' E 008°33'0 0.0
2017-Oct-14 03:30N 62°41' E 008°33'0 0.0
2017-Oct-14 03:00N 62°41' E 008°33'0 0.0
2017-Oct-14 02:30N 62°41' E 008°33'4 7.9
2017-Oct-14 02:00N 62°44' E 008°28'611.9
2017-Oct-14 01:30N 62°48' E 008°17'510.9
2017-Oct-14 01:00N 62°51' E 008°08'611.2
2017-Oct-14 00:30N 62°57' E 008°05'510.7
2017-Oct-14 00:00N 62°58' E 007°54'4 8.4
2017-Oct-13 23:30N 63°00' E 007°46'510.8
2017-Oct-13 23:00N 63°04' E 007°55'510.7
2017-Oct-13 22:30N 63°09' E 007°51'4 7.0
2017-Oct-13 22:00N 63°12' E 007°51'510.5
2017-Oct-13 21:30N 63°15' E 008°01'510.5
2017-Oct-13 21:00N 63°17' E 008°11'510.2
2017-Oct-13 20:30N 63°21' E 008°20'510.2
2017-Oct-13 20:00N 63°24' E 008°29'510.6
2017-Oct-13 19:30N 63°26' E 008°40'510.3
2017-Oct-13 19:00N 63°28' E 008°51'611.3
2017-Oct-13 18:30N 63°29' E 009°03'510.9
2017-Oct-13 18:00N 63°32' E 009°13'510.7
2017-Oct-13 17:30N 63°35' E 009°23'510.2
2017-Oct-13 17:00N 63°39' E 009°29'510.5
2017-Oct-13 16:30N 63°44' E 009°32'510.0
2017-Oct-13 16:00N 63°49' E 009°38'0 0.6
2017-Oct-13 15:28N 63°49' E 009°38'0 0.0
2017-Oct-13 14:58N 63°49' E 009°38'0 0.0
2017-Oct-13 14:28N 63°49' E 009°38'0 0.0
2017-Oct-13 14:00N 63°49' E 009°38'0 0.0
2017-Oct-13 13:30N 63°49' E 009°38'0 0.0
2017-Oct-13 13:00N 63°49' E 009°38'3 7.0
2017-Oct-13 12:30N 63°46' E 009°33'611.6
2017-Oct-13 12:00N 63°41' E 009°29'611.5
2017-Oct-13 11:30N 63°35' E 009°27'612.4
2017-Oct-13 11:00N 63°32' E 009°14'612.7
2017-Oct-13 10:29N 63°29' E 009°02'612.0
2017-Oct-13 10:00N 63°27' E 008°49'611.9
2017-Oct-13 09:30N 63°25' E 008°37'612.1
2017-Oct-13 09:00N 63°22' E 008°25'612.1
2017-Oct-13 08:30N 63°18' E 008°15'612.0
2017-Oct-13 08:00N 63°15' E 008°04'611.9
2017-Oct-13 07:30N 63°12' E 007°52'611.5
2017-Oct-13 07:00N 63°09' E 007°42'611.2
2017-Oct-13 06:31N 63°06' E 007°31'611.1
2017-Oct-13 06:00N 63°03' E 007°20'611.2
2017-Oct-13 05:30N 63°01' E 007°09'611.6
2017-Oct-13 05:00N 62°59' E 006°57'611.5
2017-Oct-13 04:30N 62°55' E 006°47'612.2
2017-Oct-13 04:00N 62°50' E 006°40'612.3
2017-Oct-13 03:30N 62°45' E 006°33'612.2
2017-Oct-13 03:00N 62°40' E 006°26'612.1
2017-Oct-13 02:30N 62°36' E 006°16'611.9
2017-Oct-13 02:01N 62°31' E 006°09'611.1
2017-Oct-13 01:30N 62°26' E 006°02'611.3
2017-Oct-13 01:00N 62°21' E 006°08'611.9
2017-Oct-13 00:30N 62°17' E 005°59'611.5
2017-Oct-12 23:56N 62°12' E 005°50'512.0
2017-Oct-12 23:30N 62°11' E 005°39'611.0
2017-Oct-12 22:58N 62°12' E 005°27'4 9.4
2017-Oct-12 22:30N 62°12' E 005°17'5 9.4
2017-Oct-12 21:57N 62°12' E 005°06'39 9.7
2017-Oct-12 17:56N 61°33' E 004°60'911.3
2017-Oct-12 17:06N 61°24' E 004°59'211.9
2017-Oct-12 16:54N 61°22' E 005°02'4 8.7
2017-Oct-12 16:24N 61°18' E 004°59'4 9.3
2017-Oct-12 16:00N 61°14' E 004°56'611.5
2017-Oct-12 15:30N 61°09' E 005°01'611.2
2017-Oct-12 15:00N 61°04' E 004°58'611.4
2017-Oct-12 14:30N 61°00' E 004°49'510.7
2017-Oct-12 14:00N 60°55' E 004°46'611.3
2017-Oct-12 13:30N 60°50' E 004°45'611.1
2017-Oct-12 13:00N 60°44' E 004°48'611.2
2017-Oct-12 12:30N 60°39' E 004°52'611.1
2017-Oct-12 12:00N 60°34' E 004°54'1 1.3
2017-Oct-12 11:30N 60°33' E 004°53'0 0.0
2017-Oct-12 11:00N 60°33' E 004°53'0 0.0
2017-Oct-12 10:30N 60°33' E 004°53'0 0.0
2017-Oct-12 10:00N 60°33' E 004°53'0 0.0
2017-Oct-12 09:30N 60°33' E 004°53'0 0.0
2017-Oct-12 08:59N 60°33' E 004°53'0 0.0
2017-Oct-12 08:29N 60°33' E 004°53'0 0.0
2017-Oct-12 07:59N 60°33' E 004°53'0 0.0
2017-Oct-12 07:29N 60°33' E 004°53'0 0.0
2017-Oct-12 06:59N 60°33' E 004°53'0 0.0
2017-Oct-12 06:28N 60°33' E 004°53'0 0.0
2017-Oct-12 05:58N 60°33' E 004°53'0 0.0
2017-Oct-12 05:28N 60°33' E 004°53'2 3.6
2017-Oct-12 05:00N 60°35' E 004°53'510.8
2017-Oct-12 04:30N 60°40' E 004°50'611.4
2017-Oct-12 04:00N 60°45' E 004°46'5 9.9
2017-Oct-12 03:30N 60°50' E 004°45'510.6
2017-Oct-12 03:00N 60°55' E 004°46'611.3
2017-Oct-12 02:30N 61°01' E 004°49'612.5
2017-Oct-12 02:00N 61°05' E 004°60'611.9
2017-Oct-12 01:30N 61°11' E 005°01'610.8
2017-Oct-12 01:00N 61°15' E 004°55'510.6
2017-Oct-12 00:30N 61°19' E 005°03'611.4
2017-Oct-12 00:00N 61°24' E 004°59'611.5
2017-Oct-11 23:30N 61°30' E 004°59'510.9
2017-Oct-11 23:00N 61°35' E 004°57'611.4
2017-Oct-11 22:30N 61°41' E 004°57'611.4
2017-Oct-11 22:00N 61°46' E 005°02'611.7
2017-Oct-11 21:30N 61°49' E 005°12'3 6.3
2017-Oct-11 21:00N 61°53' E 005°11'5 9.5
2017-Oct-11 20:30N 61°57' E 005°09'611.8
2017-Oct-11 20:00N 62°03' E 005°08'611.6
2017-Oct-11 19:29N 62°09' E 005°05'5 9.5
2017-Oct-11 19:00N 62°13' E 005°09'510.2
2017-Oct-11 18:30N 62°11' E 005°19'510.0
2017-Oct-11 18:00N 62°12' E 005°30'611.2
2017-Oct-11 17:30N 62°11' E 005°41'611.8
2017-Oct-11 17:00N 62°13' E 005°53'18210.7
2017-Oct-11 00:00N 64°28' E 010°26'612.0
2017-Oct-10 23:30N 64°33' E 010°34'612.1
2017-Oct-10 23:01N 64°38' E 010°43'612.1
2017-Oct-10 22:30N 64°43' E 010°52'611.9
2017-Oct-10 22:00N 64°46' E 011°03'612.0
2017-Oct-10 21:31N 64°51' E 011°12'611.3
2017-Oct-10 21:01N 64°55' E 011°21'612.2
2017-Oct-10 20:30N 64°58' E 011°34'611.6
2017-Oct-10 20:00N 65°02' E 011°43'612.1
2017-Oct-10 19:30N 65°08' E 011°49'612.0
2017-Oct-10 19:00N 65°14' E 011°54'612.0
2017-Oct-10 18:30N 65°19' E 012°00'4 8.6
2017-Oct-10 18:00N 65°23' E 011°58'510.7
2017-Oct-10 17:30N 65°29' E 011°59'611.9
2017-Oct-10 17:00N 65°34' E 012°06'611.8
2017-Oct-10 16:30N 65°39' E 012°13'612.0
2017-Oct-10 16:00N 65°45' E 012°18'612.5
2017-Oct-10 15:30N 65°49' E 012°28'612.6
2017-Oct-10 15:00N 65°54' E 012°37'1010.6
2017-Oct-10 14:01N 65°56' E 013°02'  
Track history (hours):
 
Tides and Currents Weather Stations Pressure Air Temp Water Temp Dewpoint Dewpoint Depression Visibility Wind Speed Wind Dir Waves Ship Positions

Pioneer Knutsen

Last reported at 2017-Oct-20 14:00 UTC. Time now 2017-Oct-20 14:42 UTC.
Position N 63°49' E 009°38'.

Length 70 m; draft 3.6 m.

Type: Ship. MMSI: 259393000.

Date/timePositionNaut miles runAvg speedWind from/ knotsBaromVisibWave heightAir tempDewpointWater temp
2017-Oct-20 14:00N 63°49' E 009°38'1 2.6
2017-Oct-20 13:30N 63°48' E 009°36'511.2
2017-Oct-20 13:00N 63°43' E 009°32'612.2
2017-Oct-20 12:30N 63°37' E 009°28'510.8
2017-Oct-20 12:00N 63°33' E 009°19'612.0
2017-Oct-20 11:30N 63°30' E 009°08'611.5
2017-Oct-20 11:00N 63°28' E 008°56'611.9
2017-Oct-20 10:30N 63°26' E 008°43'611.5
2017-Oct-20 10:00N 63°24' E 008°32'612.1
2017-Oct-20 09:30N 63°20' E 008°20'612.3
2017-Oct-20 09:00N 63°17' E 008°10'612.1
2017-Oct-20 08:30N 63°14' E 007°58'612.2
2017-Oct-20 08:00N 63°11' E 007°46'611.4
2017-Oct-20 07:30N 63°07' E 007°36'611.5
2017-Oct-20 07:00N 63°04' E 007°25'611.5
2017-Oct-20 06:31N 63°02' E 007°13'611.7
2017-Oct-20 06:00N 63°00' E 007°01'511.0
2017-Oct-20 05:30N 62°57' E 006°50'611.2
2017-Oct-20 05:00N 62°53' E 006°44'611.7
2017-Oct-20 04:30N 62°48' E 006°37'612.1
2017-Oct-20 04:00N 62°43' E 006°30'612.0
2017-Oct-20 03:30N 62°38' E 006°22'611.7
2017-Oct-20 03:00N 62°34' E 006°12'611.7
2017-Oct-20 02:29N 62°29' E 006°06'510.7
2017-Oct-20 02:01N 62°24' E 006°05'5 9.6
2017-Oct-20 01:30N 62°19' E 006°04'611.6
2017-Oct-20 01:00N 62°14' E 005°56'510.5
2017-Oct-20 00:30N 62°12' E 005°46'510.4
2017-Oct-20 00:00N 62°11' E 005°35'5 9.7
2017-Oct-19 23:30N 62°11' E 005°25'5 9.5
2017-Oct-19 23:00N 62°13' E 005°15'510.0
2017-Oct-19 22:30N 62°12' E 005°05'611.6
2017-Oct-19 22:00N 62°06' E 005°06'612.0
2017-Oct-19 21:30N 61°60' E 005°10'611.4
2017-Oct-19 21:00N 61°54' E 005°08'510.2
2017-Oct-19 20:30N 61°50' E 005°16'611.7
2017-Oct-19 20:01N 61°47' E 005°06'611.5
2017-Oct-19 19:30N 61°43' E 004°58'612.0
2017-Oct-19 19:00N 61°37' E 004°59'510.8
2017-Oct-19 18:30N 61°32' E 005°00'611.9
2017-Oct-19 18:00N 61°26' E 004°58'612.1
2017-Oct-19 17:29N 61°20' E 005°03'4 9.2
2017-Oct-19 17:00N 61°17' E 004°56'510.6
2017-Oct-19 16:30N 61°12' E 005°00'612.2
2017-Oct-19 15:59N 61°06' E 005°02'510.4
2017-Oct-19 15:30N 61°02' E 004°55'510.4
2017-Oct-19 15:00N 60°59' E 004°46'611.7
2017-Oct-19 14:30N 60°53' E 004°46'611.5
2017-Oct-19 14:00N 60°47' E 004°46'612.6
2017-Oct-19 13:30N 60°41' E 004°51'612.7
2017-Oct-19 13:01N 60°35' E 004°54'2 4.7
2017-Oct-19 12:30N 60°33' E 004°53'0 0.0
2017-Oct-19 11:59N 60°33' E 004°53'0 0.0
2017-Oct-19 11:29N 60°33' E 004°53'0 0.0
2017-Oct-19 10:59N 60°33' E 004°53'0 0.0
2017-Oct-19 10:29N 60°33' E 004°53'0 0.0
2017-Oct-19 09:58N 60°33' E 004°53'0 0.0
2017-Oct-19 09:28N 60°33' E 004°53'0 0.0
2017-Oct-19 08:58N 60°33' E 004°53'0 0.0
2017-Oct-19 08:28N 60°33' E 004°53'0 0.0
2017-Oct-19 07:58N 60°33' E 004°53'0 0.0
2017-Oct-19 07:30N 60°33' E 004°53'0 0.0
2017-Oct-19 07:00N 60°33' E 004°53'0 0.0
2017-Oct-19 06:30N 60°33' E 004°53'0 0.0
2017-Oct-19 06:00N 60°33' E 004°53'4 8.4
2017-Oct-19 05:30N 60°37' E 004°52'611.3
2017-Oct-19 05:00N 60°42' E 004°48'611.1
2017-Oct-19 04:30N 60°48' E 004°44'611.0
2017-Oct-19 04:00N 60°53' E 004°46'611.9
2017-Oct-19 03:31N 60°59' E 004°46'712.9
2017-Oct-19 02:59N 61°03' E 004°57'611.6
2017-Oct-19 02:30N 61°08' E 005°01'510.1
2017-Oct-19 02:00N 61°13' E 004°57'4 8.9
2017-Oct-19 01:30N 61°18' E 004°57'5 9.0
2017-Oct-19 00:59N 61°22' E 005°02'510.6
2017-Oct-19 00:30N 61°27' E 004°58'611.5
2017-Oct-19 00:00N 61°32' E 005°00'510.2
2017-Oct-18 23:30N 61°37' E 004°59'611.3
2017-Oct-18 23:00N 61°43' E 004°57'611.7
2017-Oct-18 22:30N 61°47' E 005°05'611.9
2017-Oct-18 22:00N 61°50' E 005°16'510.3
2017-Oct-18 21:30N 61°54' E 005°08'510.5
2017-Oct-18 21:00N 61°59' E 005°10'611.8
2017-Oct-18 20:30N 62°05' E 005°06'611.5
2017-Oct-18 20:00N 62°11' E 005°05'5 9.9
2017-Oct-18 19:30N 62°13' E 005°14'510.8
2017-Oct-18 19:00N 62°11' E 005°23'610.8
2017-Oct-18 18:29N 62°11' E 005°35'612.6
2017-Oct-18 17:59N 62°12' E 005°48'611.9
2017-Oct-18 17:30N 62°16' E 005°58'612.2
2017-Oct-18 17:00N 62°21' E 006°07'611.2
2017-Oct-18 16:29N 62°26' E 006°02'510.7
2017-Oct-18 16:00N 62°30' E 006°09'611.2
2017-Oct-18 15:30N 62°35' E 006°14'611.6
2017-Oct-18 15:00N 62°39' E 006°24'1211.7
2017-Oct-18 14:00N 62°49' E 006°37'611.5
2017-Oct-18 13:30N 62°54' E 006°44'611.3
2017-Oct-18 13:00N 62°58' E 006°51'610.9
2017-Oct-18 12:30N 63°01' E 007°02'611.5
2017-Oct-18 12:00N 63°02' E 007°14'611.7
2017-Oct-18 11:30N 63°05' E 007°26'612.3
2017-Oct-18 11:00N 63°08' E 007°37'612.1
2017-Oct-18 10:30N 63°11' E 007°48'612.0
2017-Oct-18 10:00N 63°15' E 007°60'612.0
2017-Oct-18 09:30N 63°17' E 008°11'612.1
2017-Oct-18 09:00N 63°21' E 008°22'612.0
2017-Oct-18 08:30N 63°24' E 008°33'612.0
2017-Oct-18 08:00N 63°27' E 008°45'611.5
2017-Oct-18 07:30N 63°29' E 008°58'611.3
2017-Oct-18 07:00N 63°31' E 009°09'611.6
2017-Oct-18 06:30N 63°34' E 009°20'510.7
2017-Oct-18 06:01N 63°38' E 009°28'611.8
2017-Oct-18 05:30N 63°43' E 009°32'611.7
2017-Oct-18 05:00N 63°49' E 009°35'611.5
2017-Oct-18 04:30N 63°53' E 009°45'611.6
2017-Oct-18 04:00N 63°59' E 009°47'510.3
2017-Oct-18 03:30N 64°04' E 009°51'611.4
2017-Oct-18 03:00N 64°07' E 010°02'611.7
2017-Oct-18 02:30N 64°12' E 010°10'610.9
2017-Oct-18 01:58N 64°16' E 010°19'510.9
2017-Oct-18 01:30N 64°20' E 010°27'511.1
2017-Oct-18 01:00N 64°25' E 010°27'611.5
2017-Oct-18 00:30N 64°31' E 010°30'510.8
2017-Oct-18 00:00N 64°35' E 010°38'510.6
2017-Oct-17 23:30N 64°39' E 010°45'611.2
2017-Oct-17 23:00N 64°43' E 010°54'611.2
2017-Oct-17 22:30N 64°47' E 011°04'611.4
2017-Oct-17 22:00N 64°51' E 011°13'510.8
2017-Oct-17 21:30N 64°55' E 011°22'611.2
2017-Oct-17 21:00N 64°58' E 011°33'610.8
2017-Oct-17 20:30N 65°02' E 011°42'5 9.5
2017-Oct-17 20:00N 65°06' E 011°48'611.7
2017-Oct-17 19:29N 65°12' E 011°52'611.7
2017-Oct-17 19:00N 65°17' E 011°58'510.8
2017-Oct-17 18:30N 65°22' E 012°02'510.4
2017-Oct-17 17:59N 65°27' E 011°56'611.6
2017-Oct-17 17:30N 65°32' E 012°03'611.9
2017-Oct-17 17:00N 65°37' E 012°11'612.0
2017-Oct-17 16:30N 65°42' E 012°16'611.7
2017-Oct-17 16:00N 65°47' E 012°24'611.7
2017-Oct-17 15:30N 65°52' E 012°33'611.4
2017-Oct-17 15:00N 65°56' E 012°41'510.9
2017-Oct-17 14:30N 65°58' E 012°54'612.4
2017-Oct-17 13:59N 65°54' E 013°07'4 7.1
2017-Oct-17 13:28N 65°51' E 013°11'0 0.0
2017-Oct-17 12:56N 65°51' E 013°11'0 0.0
2017-Oct-17 12:29N 65°51' E 013°11'0 0.0
2017-Oct-17 11:58N 65°51' E 013°11'0 0.0
2017-Oct-17 11:28N 65°51' E 013°11'0 0.0
2017-Oct-17 10:58N 65°51' E 013°11'0 0.0
2017-Oct-17 09:19N 65°51' E 013°11'0 0.0
2017-Oct-17 08:28N 65°51' E 013°11'2 3.7
2017-Oct-17 08:00N 65°53' E 013°09'510.8
2017-Oct-17 07:30N 65°56' E 012°60'510.2
2017-Oct-17 07:00N 65°58' E 012°48'612.3
2017-Oct-17 06:30N 65°54' E 012°37'612.0
2017-Oct-17 06:00N 65°49' E 012°29'612.0
2017-Oct-17 05:30N 65°45' E 012°19'612.1
2017-Oct-17 05:00N 65°39' E 012°14'611.7
2017-Oct-17 04:30N 65°34' E 012°06'611.7
2017-Oct-17 04:00N 65°29' E 011°59'510.3
2017-Oct-17 03:30N 65°24' E 011°59'4 8.6
2017-Oct-17 03:00N 65°20' E 012°01'611.6
2017-Oct-17 02:30N 65°14' E 011°55'611.7
2017-Oct-17 02:00N 65°09' E 011°50'611.7
2017-Oct-17 01:30N 65°04' E 011°45'611.5
2017-Oct-17 01:00N 64°59' E 011°36'611.9
2017-Oct-17 00:30N 64°56' E 011°24'611.5
2017-Oct-17 00:00N 64°52' E 011°15'611.4
2017-Oct-16 23:30N 64°47' E 011°05'611.6
2017-Oct-16 23:00N 64°44' E 010°55'611.2
2017-Oct-16 22:30N 64°40' E 010°46'611.4
2017-Oct-16 22:00N 64°35' E 010°38'510.6
2017-Oct-16 21:30N 64°31' E 010°30'5 8.7
2017-Oct-16 20:59N 64°27' E 010°27'5 9.4
2017-Oct-16 20:30N 64°22' E 010°28'611.1
2017-Oct-16 20:00N 64°18' E 010°21'510.9
2017-Oct-16 19:30N 64°13' E 010°13'611.5
2017-Oct-16 19:00N 64°08' E 010°06'611.6
2017-Oct-16 18:30N 64°05' E 009°56'510.6
2017-Oct-16 17:59N 64°01' E 009°47'510.7
2017-Oct-16 17:30N 63°56' E 009°48'611.5
2017-Oct-16 17:00N 63°51' E 009°40'611.8
2017-Oct-16 16:30N 63°46' E 009°33'511.2
2017-Oct-16 16:00N 63°41' E 009°30'611.2
2017-Oct-16 15:30N 63°35' E 009°26'612.8
2017-Oct-16 15:00N 63°32' E 009°14'612.7
2017-Oct-16 14:30N 63°29' E 009°02'1212.1
2017-Oct-16 13:30N 63°25' E 008°36'612.2
2017-Oct-16 13:00N 63°22' E 008°24'612.2
2017-Oct-16 12:30N 63°18' E 008°14'612.2
2017-Oct-16 12:00N 63°15' E 008°02'612.0
2017-Oct-16 11:30N 63°12' E 007°51'611.9
2017-Oct-16 11:00N 63°09' E 007°40'611.6
2017-Oct-16 10:31N 63°05' E 007°29'611.5
2017-Oct-16 10:00N 63°03' E 007°17'611.7
2017-Oct-16 09:30N 63°01' E 007°05'611.2
2017-Oct-16 08:59N 62°59' E 006°54'510.0
2017-Oct-16 08:30N 62°55' E 006°47'510.9
2017-Oct-16 08:00N 62°50' E 006°40'611.7
2017-Oct-16 07:30N 62°45' E 006°33'611.8
2017-Oct-16 07:00N 62°41' E 006°26'611.5
2017-Oct-16 06:30N 62°36' E 006°18'611.2
2017-Oct-16 06:00N 62°32' E 006°10'611.0
2017-Oct-16 05:30N 62°27' E 006°04'510.4
2017-Oct-16 05:00N 62°22' E 006°07'510.3
2017-Oct-16 04:30N 62°18' E 006°02'612.3
2017-Oct-16 03:59N 62°13' E 005°53'612.3
2017-Oct-16 03:30N 62°11' E 005°41'611.5
2017-Oct-16 03:00N 62°12' E 005°29'5 9.7
2017-Oct-16 02:30N 62°11' E 005°19'510.1
2017-Oct-16 02:00N 62°14' E 005°09'5 9.8
2017-Oct-16 01:30N 62°10' E 005°02'4 8.1
2017-Oct-16 01:00N 62°06' E 005°05'4 8.8
2017-Oct-16 00:30N 62°03' E 005°09'610.9
2017-Oct-16 00:00N 61°57' E 005°09'5 9.3
2017-Oct-15 23:30N 61°53' E 005°11'3 6.4
2017-Oct-15 23:00N 61°49' E 005°12'612.5
2017-Oct-15 22:30N 61°46' E 005°01'611.7
2017-Oct-15 22:00N 61°40' E 004°58'611.6
2017-Oct-15 21:30N 61°34' E 004°58'611.4
2017-Oct-15 21:00N 61°29' E 004°59'611.8
2017-Oct-15 20:30N 61°23' E 005°01'5 9.7
2017-Oct-15 20:00N 61°18' E 005°00'5 9.7
2017-Oct-15 19:30N 61°13' E 004°57'611.9
2017-Oct-15 19:00N 61°08' E 005°02'612.1
2017-Oct-15 18:30N 61°02' E 004°56'612.8
2017-Oct-15 18:00N 60°58' E 004°46'612.3
2017-Oct-15 17:30N 60°52' E 004°47'612.0
2017-Oct-15 16:59N 60°46' E 004°47'713.4
2017-Oct-15 16:30N 60°40' E 004°52'613.0
2017-Oct-15 16:00N 60°34' E 004°54'1 1.8
2017-Oct-15 15:30N 60°33' E 004°53'0 0.0
2017-Oct-15 14:58N 60°33' E 004°53'0 0.0
2017-Oct-15 13:58N 60°33' E 004°53'0 0.0
2017-Oct-15 13:28N 60°33' E 004°53'0 0.0
2017-Oct-15 13:00N 60°33' E 004°53'0 0.0
2017-Oct-15 12:30N 60°33' E 004°53'0 0.0
2017-Oct-15 12:00N 60°33' E 004°53'0 0.0
2017-Oct-15 11:30N 60°33' E 004°53'0 0.0
2017-Oct-15 11:00N 60°33' E 004°53'0 0.0
2017-Oct-15 10:29N 60°33' E 004°53'0 0.0
2017-Oct-15 09:59N 60°33' E 004°53'0 0.0
2017-Oct-15 09:30N 60°33' E 004°53'4 8.3
2017-Oct-15 09:00N 60°37' E 004°53'510.1
2017-Oct-15 08:29N 60°42' E 004°49'510.1
2017-Oct-15 07:59N 60°47' E 004°45'5 9.7
2017-Oct-15 07:30N 60°51' E 004°45'510.3
2017-Oct-15 07:00N 60°57' E 004°46'5 9.6
2017-Oct-15 06:30N 61°01' E 004°50'611.2
2017-Oct-15 05:59N 61°05' E 004°59'510.9
2017-Oct-15 05:30N 61°10' E 005°01'510.2
2017-Oct-15 05:00N 61°14' E 004°55'4 8.7
2017-Oct-15 04:30N 61°18' E 004°59'4 8.5
2017-Oct-15 04:00N 61°22' E 005°01'510.3
2017-Oct-15 03:30N 61°27' E 004°58'510.6
2017-Oct-15 03:00N 61°32' E 005°00'5 9.4
2017-Oct-15 02:30N 61°37' E 004°59'510.7
2017-Oct-15 02:00N 61°42' E 004°57'5 9.6
2017-Oct-15 01:30N 61°46' E 005°02'510.0
2017-Oct-15 01:00N 61°49' E 005°11'3 6.5
2017-Oct-15 00:30N 61°52' E 005°13'5 9.3
2017-Oct-15 00:00N 61°56' E 005°08'510.5
2017-Oct-14 23:30N 62°01' E 005°09'510.4
2017-Oct-14 23:00N 62°06' E 005°05'4 8.8
2017-Oct-14 22:30N 62°10' E 005°02'3 5.0
2017-Oct-14 22:00N 62°13' E 005°04'3 5.8
2017-Oct-14 21:30N 62°14' E 005°10'4 8.4
2017-Oct-14 21:00N 62°12' E 005°18'4 8.4
2017-Oct-14 20:30N 62°12' E 005°27'510.1
2017-Oct-14 20:00N 62°11' E 005°38'510.4
2017-Oct-14 19:30N 62°12' E 005°48'510.5
2017-Oct-14 19:00N 62°16' E 005°57'611.0
2017-Oct-14 18:29N 62°20' E 006°05'510.0
2017-Oct-14 18:00N 62°25' E 006°03'4 8.7
2017-Oct-14 17:30N 62°29' E 006°06'5 9.3
2017-Oct-14 17:00N 62°33' E 006°10'5 9.6
2017-Oct-14 16:30N 62°37' E 006°17'5 9.2
2017-Oct-14 16:00N 62°40' E 006°25'5 9.8
2017-Oct-14 15:30N 62°44' E 006°30'5 9.6
2017-Oct-14 15:00N 62°48' E 006°36'5 9.2
2017-Oct-14 14:30N 62°52' E 006°41'4 8.6
2017-Oct-14 14:00N 62°55' E 006°47'4 7.1
2017-Oct-14 13:30N 62°58' E 006°51'3 6.2
2017-Oct-14 13:00N 62°60' E 006°57'4 7.3
2017-Oct-14 12:30N 63°01' E 007°04'4 7.6
2017-Oct-14 12:01N 63°02' E 007°12'4 7.8
2017-Oct-14 11:30N 63°03' E 007°20'4 8.4
2017-Oct-14 11:00N 63°05' E 007°29'5 9.7
2017-Oct-14 10:30N 63°08' E 007°38'611.1
2017-Oct-14 10:00N 63°02' E 007°41'611.7
2017-Oct-14 09:30N 62°58' E 007°49'510.8
2017-Oct-14 09:00N 62°59' E 008°00'611.5
2017-Oct-14 08:30N 62°54' E 008°08'611.6
2017-Oct-14 08:00N 62°49' E 008°13'612.0
2017-Oct-14 07:30N 62°46' E 008°24'511.0
2017-Oct-14 07:00N 62°42' E 008°32'1 1.7
2017-Oct-14 06:30N 62°41' E 008°33'0 0.0
2017-Oct-14 05:58N 62°41' E 008°33'0 0.0
2017-Oct-14 05:28N 62°41' E 008°33'0 0.0
2017-Oct-14 04:58N 62°41' E 008°33'0 0.0
2017-Oct-14 04:28N 62°41' E 008°33'0 0.0
2017-Oct-14 04:00N 62°41' E 008°33'0 0.0
2017-Oct-14 03:30N 62°41' E 008°33'0 0.0
2017-Oct-14 03:00N 62°41' E 008°33'0 0.0
2017-Oct-14 02:30N 62°41' E 008°33'4 7.9
2017-Oct-14 02:00N 62°44' E 008°28'611.9
2017-Oct-14 01:30N 62°48' E 008°17'510.9
2017-Oct-14 01:00N 62°51' E 008°08'611.2
2017-Oct-14 00:30N 62°57' E 008°05'510.7
2017-Oct-14 00:00N 62°58' E 007°54'4 8.4
2017-Oct-13 23:30N 63°00' E 007°46'510.8
2017-Oct-13 23:00N 63°04' E 007°55'510.7
2017-Oct-13 22:30N 63°09' E 007°51'4 7.0
2017-Oct-13 22:00N 63°12' E 007°51'510.5
2017-Oct-13 21:30N 63°15' E 008°01'510.5
2017-Oct-13 21:00N 63°17' E 008°11'510.2
2017-Oct-13 20:30N 63°21' E 008°20'510.2
2017-Oct-13 20:00N 63°24' E 008°29'510.6
2017-Oct-13 19:30N 63°26' E 008°40'510.3
2017-Oct-13 19:00N 63°28' E 008°51'611.3
2017-Oct-13 18:30N 63°29' E 009°03'510.9
2017-Oct-13 18:00N 63°32' E 009°13'510.7
2017-Oct-13 17:30N 63°35' E 009°23'510.2
2017-Oct-13 17:00N 63°39' E 009°29'510.5
2017-Oct-13 16:30N 63°44' E 009°32'510.0
2017-Oct-13 16:00N 63°49' E 009°38'0 0.6
2017-Oct-13 15:28N 63°49' E 009°38'0 0.0
2017-Oct-13 14:58N 63°49' E 009°38'0 0.0
2017-Oct-13 14:28N 63°49' E 009°38'0 0.0
2017-Oct-13 14:00N 63°49' E 009°38'0 0.0
2017-Oct-13 13:30N 63°49' E 009°38'0 0.0
2017-Oct-13 13:00N 63°49' E 009°38'3 7.0
2017-Oct-13 12:30N 63°46' E 009°33'611.6
2017-Oct-13 12:00N 63°41' E 009°29'611.5
2017-Oct-13 11:30N 63°35' E 009°27'612.4
2017-Oct-13 11:00N 63°32' E 009°14'612.7
2017-Oct-13 10:29N 63°29' E 009°02'612.0
2017-Oct-13 10:00N 63°27' E 008°49'611.9
2017-Oct-13 09:30N 63°25' E 008°37'612.1
2017-Oct-13 09:00N 63°22' E 008°25'612.1
2017-Oct-13 08:30N 63°18' E 008°15'612.0
2017-Oct-13 08:00N 63°15' E 008°04'611.9
2017-Oct-13 07:30N 63°12' E 007°52'611.5
2017-Oct-13 07:00N 63°09' E 007°42'611.2
2017-Oct-13 06:31N 63°06' E 007°31'611.1
2017-Oct-13 06:00N 63°03' E 007°20'611.2
2017-Oct-13 05:30N 63°01' E 007°09'611.6
2017-Oct-13 05:00N 62°59' E 006°57'611.5
2017-Oct-13 04:30N 62°55' E 006°47'612.2
2017-Oct-13 04:00N 62°50' E 006°40'612.3
2017-Oct-13 03:30N 62°45' E 006°33'612.2
2017-Oct-13 03:00N 62°40' E 006°26'612.1
2017-Oct-13 02:30N 62°36' E 006°16'611.9
2017-Oct-13 02:01N 62°31' E 006°09'611.1
2017-Oct-13 01:30N 62°26' E 006°02'611.3
2017-Oct-13 01:00N 62°21' E 006°08'611.9
2017-Oct-13 00:30N 62°17' E 005°59'611.5
2017-Oct-12 23:56N 62°12' E 005°50'512.0
2017-Oct-12 23:30N 62°11' E 005°39'611.0
2017-Oct-12 22:58N 62°12' E 005°27'4 9.4
2017-Oct-12 22:30N 62°12' E 005°17'5 9.4
2017-Oct-12 21:57N 62°12' E 005°06'39 9.7
2017-Oct-12 17:56N 61°33' E 004°60'911.3
2017-Oct-12 17:06N 61°24' E 004°59'211.9
2017-Oct-12 16:54N 61°22' E 005°02'4 8.7
2017-Oct-12 16:24N 61°18' E 004°59'4 9.3
2017-Oct-12 16:00N 61°14' E 004°56'611.5
2017-Oct-12 15:30N 61°09' E 005°01'611.2
2017-Oct-12 15:00N 61°04' E 004°58'611.4
2017-Oct-12 14:30N 61°00' E 004°49'510.7
2017-Oct-12 14:00N 60°55' E 004°46'611.3
2017-Oct-12 13:30N 60°50' E 004°45'611.1
2017-Oct-12 13:00N 60°44' E 004°48'611.2
2017-Oct-12 12:30N 60°39' E 004°52'611.1
2017-Oct-12 12:00N 60°34' E 004°54'1 1.3
2017-Oct-12 11:30N 60°33' E 004°53'0 0.0
2017-Oct-12 11:00N 60°33' E 004°53'0 0.0
2017-Oct-12 10:30N 60°33' E 004°53'0 0.0
2017-Oct-12 10:00N 60°33' E 004°53'0 0.0
2017-Oct-12 09:30N 60°33' E 004°53'0 0.0
2017-Oct-12 08:59N 60°33' E 004°53'0 0.0
2017-Oct-12 08:29N 60°33' E 004°53'0 0.0
2017-Oct-12 07:59N 60°33' E 004°53'0 0.0
2017-Oct-12 07:29N 60°33' E 004°53'0 0.0
2017-Oct-12 06:59N 60°33' E 004°53'0 0.0
2017-Oct-12 06:28N 60°33' E 004°53'0 0.0
2017-Oct-12 05:58N 60°33' E 004°53'0 0.0
2017-Oct-12 05:28N 60°33' E 004°53'2 3.6
2017-Oct-12 05:00N 60°35' E 004°53'510.8
2017-Oct-12 04:30N 60°40' E 004°50'611.4
2017-Oct-12 04:00N 60°45' E 004°46'5 9.9
2017-Oct-12 03:30N 60°50' E 004°45'510.6
2017-Oct-12 03:00N 60°55' E 004°46'611.3
2017-Oct-12 02:30N 61°01' E 004°49'612.5
2017-Oct-12 02:00N 61°05' E 004°60'611.9
2017-Oct-12 01:30N 61°11' E 005°01'610.8
2017-Oct-12 01:00N 61°15' E 004°55'510.6
2017-Oct-12 00:30N 61°19' E 005°03'611.4
2017-Oct-12 00:00N 61°24' E 004°59'611.5
2017-Oct-11 23:30N 61°30' E 004°59'510.9
2017-Oct-11 23:00N 61°35' E 004°57'611.4
2017-Oct-11 22:30N 61°41' E 004°57'611.4
2017-Oct-11 22:00N 61°46' E 005°02'611.7
2017-Oct-11 21:30N 61°49' E 005°12'3 6.3
2017-Oct-11 21:00N 61°53' E 005°11'5 9.5
2017-Oct-11 20:30N 61°57' E 005°09'611.8
2017-Oct-11 20:00N 62°03' E 005°08'611.6
2017-Oct-11 19:29N 62°09' E 005°05'5 9.5
2017-Oct-11 19:00N 62°13' E 005°09'510.2
2017-Oct-11 18:30N 62°11' E 005°19'510.0
2017-Oct-11 18:00N 62°12' E 005°30'611.2
2017-Oct-11 17:30N 62°11' E 005°41'611.8
2017-Oct-11 17:00N 62°13' E 005°53'18210.7
2017-Oct-11 00:00N 64°28' E 010°26'612.0
2017-Oct-10 23:30N 64°33' E 010°34'612.1
2017-Oct-10 23:01N 64°38' E 010°43'612.1
2017-Oct-10 22:30N 64°43' E 010°52'611.9
2017-Oct-10 22:00N 64°46' E 011°03'612.0
2017-Oct-10 21:31N 64°51' E 011°12'611.3
2017-Oct-10 21:01N 64°55' E 011°21'612.2
2017-Oct-10 20:30N 64°58' E 011°34'611.6
2017-Oct-10 20:00N 65°02' E 011°43'612.1
2017-Oct-10 19:30N 65°08' E 011°49'612.0
2017-Oct-10 19:00N 65°14' E 011°54'612.0
2017-Oct-10 18:30N 65°19' E 012°00'4 8.6
2017-Oct-10 18:00N 65°23' E 011°58'510.7
2017-Oct-10 17:30N 65°29' E 011°59'611.9
2017-Oct-10 17:00N 65°34' E 012°06'611.8
2017-Oct-10 16:30N 65°39' E 012°13'612.0
2017-Oct-10 16:00N 65°45' E 012°18'612.5
2017-Oct-10 15:30N 65°49' E 012°28'612.6
2017-Oct-10 15:00N 65°54' E 012°37'1010.6
2017-Oct-10 14:01N 65°56' E 013°02'  

Dump ship's entire track history